Time;durP1;ratioP1;P1;durP2;ratioP2;P2;SDS_P1;SDS_P2;PMS_P1;PMS_P2;Temp;Humidity;BMP_temperature;BMP_pressure;BME280_temperature;BME280_humidity;BME280_pressure;Samples;Min_cycle;Max_cycle;Signal;HPM_P1;HPM_P2
2021/05/21 00:02:37;;;;;;;2.03;1.83;;;14.20;81.70;;;;;;10356888;28;20713;-79
2021/05/21 00:07:38;;;;;;;1.90;1.80;;;14.20;81.10;;;;;;10371721;28;20206;-79
2021/05/21 00:12:41;;;;;;;2.20;2.10;;;14.20;82.10;;;;;;10391651;28;20225;-79
2021/05/21 00:17:42;;;;;;;2.20;2.10;;;14.20;83.20;;;;;;10372871;28;20689;-78
2021/05/21 00:22:44;;;;;;;2.60;1.97;;;14.20;83.50;;;;;;10379770;28;20195;-79
2021/05/21 00:27:46;;;;;;;2.10;1.90;;;14.20;83.90;;;;;;10370765;28;20596;-79
2021/05/21 00:32:48;;;;;;;2.30;2.03;;;14.20;82.10;;;;;;10421413;28;20209;-79
2021/05/21 00:37:50;;;;;;;2.20;2.10;;;14.20;82.80;;;;;;10420188;28;20284;-79
2021/05/21 00:42:52;;;;;;;1.87;1.77;;;14.10;81.90;;;;;;10402780;28;20638;-79
2021/05/21 00:47:54;;;;;;;2.30;1.53;;;14.10;81.90;;;;;;10408129;28;20690;-79
2021/05/21 00:52:55;;;;;;;2.30;2.10;;;14.10;84.50;;;;;;10379798;28;20252;-79
2021/05/21 00:57:58;;;;;;;2.30;2.20;;;14.10;85.20;;;;;;10379037;28;20230;-79
2021/05/21 01:03:00;;;;;;;2.30;2.20;;;14.10;84.00;;;;;;10398753;28;20214;-79
2021/05/21 01:08:01;;;;;;;1.77;1.67;;;14.10;83.00;;;;;;10421658;28;20339;-79
2021/05/21 01:13:04;;;;;;;1.83;1.73;;;14.10;83.30;;;;;;10402332;28;20713;-79
2021/05/21 01:18:07;;;;;;;1.83;1.73;;;14.10;82.50;;;;;;10413702;28;20221;-79
2021/05/21 01:23:10;;;;;;;1.93;1.83;;;14.10;83.90;;;;;;10401694;28;20674;-79
2021/05/21 01:28:14;;;;;;;2.47;2.00;;;14.10;83.20;;;;;;10419143;28;20348;-79
2021/05/21 01:33:16;;;;;;;2.00;1.90;;;14.10;83.50;;;;;;10399433;28;20941;-79
2021/05/21 01:38:18;;;;;;;2.13;2.03;;;14.10;85.80;;;;;;10390305;28;20235;-79
2021/05/21 01:43:20;;;;;;;1.87;1.77;;;14.10;85.70;;;;;;10377095;28;20249;-79
2021/05/21 01:48:22;;;;;;;1.90;1.80;;;14.10;81.70;;;;;;10374448;28;20665;-79
2021/05/21 01:53:24;;;;;;;1.80;1.70;;;14.10;81.20;;;;;;10413834;28;20207;-79
2021/05/21 01:58:26;;;;;;;1.93;1.83;;;14.00;81.80;;;;;;10359615;28;20230;-79
2021/05/21 02:03:29;;;;;;;1.70;1.60;;;14.10;80.40;;;;;;10366961;28;20214;-79
2021/05/21 02:08:31;;;;;;;3.03;1.77;;;14.10;80.70;;;;;;10419451;28;20229;-79
2021/05/21 02:13:33;;;;;;;1.80;1.80;;;14.10;80.10;;;;;;10399283;28;20237;-79
2021/05/21 02:18:34;;;;;;;2.73;1.77;;;14.10;79.50;;;;;;10414658;28;20308;-79
2021/05/21 02:23:38;;;;;;;1.73;1.60;;;14.20;79.20;;;;;;10402850;28;20654;-78
2021/05/21 02:28:40;;;;;;;1.97;1.40;;;14.10;78.40;;;;;;10398333;28;20301;-79
2021/05/21 02:33:41;;;;;;;1.70;1.60;;;14.10;78.80;;;;;;10414176;28;20792;-79
2021/05/21 02:38:44;;;;;;;2.13;2.03;;;14.10;77.60;;;;;;10414952;28;20261;-79
2021/05/21 02:43:45;;;;;;;1.60;1.50;;;14.10;78.30;;;;;;10398979;28;20253;-79
2021/05/21 02:48:47;;;;;;;2.10;2.00;;;14.00;78.80;;;;;;10386727;28;20225;-79
2021/05/21 02:53:49;;;;;;;1.60;1.60;;;14.00;78.10;;;;;;10411685;28;20284;-79
2021/05/21 02:58:51;;;;;;;1.90;1.80;;;14.00;79.00;;;;;;10398589;28;20535;-79
2021/05/21 03:03:53;;;;;;;1.67;1.57;;;14.00;80.00;;;;;;10415838;28;20720;-78
2021/05/21 03:08:55;;;;;;;2.07;1.80;;;14.00;79.90;;;;;;10410763;28;20222;-79
2021/05/21 03:13:57;;;;;;;1.80;1.70;;;14.00;80.70;;;;;;10376835;28;20207;-79
2021/05/21 03:18:58;;;;;;;2.10;2.00;;;14.00;79.20;;;;;;10372861;28;20773;-79
2021/05/21 03:24:01;;;;;;;1.93;1.83;;;14.00;79.30;;;;;;10372453;28;20209;-79
2021/05/21 03:29:03;;;;;;;5.13;2.00;;;14.00;78.80;;;;;;10390805;28;20627;-79
2021/05/21 03:34:04;;;;;;;1.87;1.77;;;13.90;79.40;;;;;;10415818;28;20206;-79
2021/05/21 03:39:08;;;;;;;1.70;1.60;;;13.90;79.70;;;;;;10397611;28;20288;-79
2021/05/21 03:44:09;;;;;;;2.90;1.67;;;14.00;78.50;;;;;;10403398;28;20217;-79
2021/05/21 03:49:12;;;;;;;2.00;1.90;;;14.00;78.90;;;;;;10403756;28;20606;-79
2021/05/21 03:54:15;;;;;;;2.37;1.60;;;14.00;79.10;;;;;;10399748;28;20206;-79
2021/05/21 03:59:17;;;;;;;1.90;1.80;;;13.90;78.80;;;;;;10468384;22;20232;-82
2021/05/21 04:04:18;;;;;;;2.97;1.80;;;13.90;78.20;;;;;;10407165;28;20293;-82
2021/05/21 04:09:21;;;;;;;1.90;1.70;;;14.00;79.20;;;;;;10401011;28;20269;-82
2021/05/21 04:14:22;;;;;;;1.90;1.80;;;14.00;79.40;;;;;;10421770;28;20216;-82
2021/05/21 04:19:24;;;;;;;1.70;1.60;;;14.10;77.80;;;;;;10369674;28;20260;-82
2021/05/21 04:24:26;;;;;;;1.80;1.70;;;14.10;77.30;;;;;;10382938;28;20210;-82
2021/05/21 04:29:28;;;;;;;1.77;1.67;;;14.20;77.20;;;;;;10387116;28;20225;-82
2021/05/21 04:34:30;;;;;;;1.60;1.50;;;14.20;77.30;;;;;;10397351;28;20214;-84
2021/05/21 04:39:32;;;;;;;1.17;1.17;;;14.20;77.00;;;;;;10383680;28;20289;-83
2021/05/21 04:44:34;;;;;;;1.60;1.40;;;14.30;76.60;;;;;;10394701;28;20225;-83
2021/05/21 04:49:35;;;;;;;1.70;1.60;;;14.40;77.10;;;;;;10408070;28;20308;-81
2021/05/21 04:54:39;;;;;;;3.70;1.97;;;14.50;76.10;;;;;;10358125;28;20206;-83
2021/05/21 04:59:40;;;;;;;1.67;1.57;;;14.60;76.80;;;;;;10372425;28;20604;-82
2021/05/21 05:04:42;;;;;;;1.90;1.80;;;14.60;76.20;;;;;;10384185;28;20209;-82
2021/05/21 05:09:45;;;;;;;1.73;1.63;;;14.70;75.90;;;;;;10387194;28;20224;-82
2021/05/21 05:14:46;;;;;;;1.67;1.57;;;14.80;75.70;;;;;;10404717;28;20202;-82
2021/05/21 05:19:48;;;;;;;1.60;1.50;;;14.90;74.30;;;;;;10405934;28;20261;-82
2021/05/21 05:24:50;;;;;;;1.40;1.30;;;15.10;73.80;;;;;;10423648;28;20236;-82
2021/05/21 05:29:52;;;;;;;1.60;1.50;;;15.20;73.40;;;;;;10393868;28;20313;-82
2021/05/21 05:34:54;;;;;;;1.60;1.50;;;15.30;72.80;;;;;;10399930;28;20194;-82
2021/05/21 05:39:56;;;;;;;1.60;1.50;;;15.40;72.30;;;;;;10393629;28;20226;-82
2021/05/21 05:44:58;;;;;;;1.70;1.60;;;15.40;72.30;;;;;;10382151;28;20216;-82
2021/05/21 05:50:01;;;;;;;1.40;1.30;;;15.40;72.50;;;;;;10405886;28;20248;-82
2021/05/21 05:55:06;;;;;;;1.83;1.67;;;15.50;73.60;;;;;;10406915;28;20297;-82
2021/05/21 06:00:09;;;;;;;1.50;1.40;;;15.50;72.20;;;;;;10406913;28;20230;-82
2021/05/21 06:05:11;;;;;;;1.77;1.50;;;15.70;73.20;;;;;;10418475;28;20214;-82
2021/05/21 06:10:14;;;;;;;1.80;1.47;;;15.80;71.30;;;;;;10373567;28;20302;-82
2021/05/21 06:15:16;;;;;;;1.77;1.60;;;16.00;72.00;;;;;;10405682;28;20214;-82
2021/05/21 06:20:18;;;;;;;2.70;2.60;;;16.00;72.40;;;;;;10383792;28;20321;-82
2021/05/21 06:25:23;;;;;;;1.63;1.53;;;16.10;71.50;;;;;;10413188;28;20285;-81
2021/05/21 06:30:25;;;;;;;2.40;1.40;;;16.30;71.40;;;;;;10398648;28;20222;-82
2021/05/21 06:35:27;;;;;;;1.30;1.20;;;16.30;70.60;;;;;;10406191;28;20278;-82
2021/05/21 06:40:30;;;;;;;1.53;1.43;;;16.40;70.90;;;;;;10390171;28;20764;-81
2021/05/21 06:45:31;;;;;;;2.03;1.60;;;16.50;70.70;;;;;;10405323;28;20237;-82
2021/05/21 06:50:33;;;;;;;1.90;1.80;;;16.40;71.00;;;;;;10385389;28;20229;-84
2021/05/21 06:55:38;;;;;;;2.93;1.47;;;16.50;71.60;;;;;;10345096;28;20231;-82
2021/05/21 07:00:42;;;;;;;1.43;1.30;;;16.50;71.30;;;;;;10379833;28;20205;-82
2021/05/21 07:05:43;;;;;;;2.90;1.73;;;16.60;69.90;;;;;;10400236;28;20216;-82
2021/05/21 07:10:46;;;;;;;1.30;1.30;;;16.70;71.80;;;;;;10414278;28;20208;-81
2021/05/21 07:15:48;;;;;;;3.97;2.90;;;16.70;72.30;;;;;;10427422;28;20221;-82
2021/05/21 07:20:51;;;;;;;3.33;1.30;;;16.80;71.00;;;;;;10362648;28;20207;-81
2021/05/21 07:25:53;;;;;;;2.63;1.40;;;16.70;73.00;;;;;;10391458;28;20208;-82
2021/05/21 07:30:55;;;;;;;2.10;1.30;;;16.70;72.40;;;;;;10429482;28;20205;-82
2021/05/21 07:35:57;;;;;;;1.13;1.03;;;16.70;72.20;;;;;;10380317;28;20225;-82
2021/05/21 07:40:59;;;;;;;3.47;1.20;;;16.70;71.10;;;;;;10387898;28;20207;-82
2021/05/21 07:46:01;;;;;;;3.63;1.50;;;16.70;72.80;;;;;;10366055;28;20226;-81
2021/05/21 07:51:03;;;;;;;2.57;1.50;;;16.70;74.20;;;;;;10388622;28;20210;-82
2021/05/21 07:56:06;;;;;;;3.20;2.00;;;16.70;72.60;;;;;;10383673;28;20945;-81
2021/05/21 08:01:08;;;;;;;1.57;1.47;;;16.60;74.20;;;;;;10368772;28;20233;-83
2021/05/21 08:06:11;;;;;;;1.53;1.20;;;16.70;72.20;;;;;;10413303;28;20218;-81
2021/05/21 08:11:19;;;;;;;2.97;1.53;;;16.70;71.70;;;;;;10379626;28;20198;-80
2021/05/21 08:16:22;;;;;;;1.50;1.40;;;16.70;71.30;;;;;;10374658;28;20237;-82
2021/05/21 08:21:25;;;;;;;2.30;1.60;;;16.80;72.20;;;;;;10382367;28;20277;-81
2021/05/21 08:26:27;;;;;;;1.50;1.40;;;16.80;72.50;;;;;;10398136;28;20221;-80
2021/05/21 08:31:29;;;;;;;2.03;1.50;;;16.80;71.50;;;;;;10422798;28;20277;-84
2021/05/21 08:36:31;;;;;;;3.23;1.10;;;16.90;72.60;;;;;;10386664;28;20237;-80
2021/05/21 08:41:38;;;;;;;1.47;1.37;;;16.90;73.00;;;;;;10372120;28;20209;-81
2021/05/21 08:46:40;;;;;;;1.00;1.00;;;17.00;72.50;;;;;;10397703;28;20249;-82
2021/05/21 08:51:41;;;;;;;1.40;1.30;;;17.00;73.80;;;;;;10355064;28;20967;-82
2021/05/21 08:56:45;;;;;;;1.50;1.40;;;17.00;72.60;;;;;;10384151;28;20233;-85
2021/05/21 09:01:52;;;;;;;2.20;1.60;;;16.90;71.60;;;;;;10389276;28;20233;-85
2021/05/21 09:06:54;;;;;;;2.57;1.30;;;16.90;72.40;;;;;;10417770;28;20250;-84
2021/05/21 09:11:56;;;;;;;1.50;1.40;;;16.90;72.30;;;;;;10418899;28;20616;-85
2021/05/21 09:16:59;;;;;;;1.30;1.20;;;16.90;70.90;;;;;;10398175;28;20228;-84
2021/05/21 09:22:03;;;;;;;3.63;1.47;;;16.90;71.00;;;;;;10386599;28;20248;-84
2021/05/21 09:27:07;;;;;;;1.30;1.20;;;16.90;70.40;;;;;;10384716;28;20705;-83
2021/05/21 09:32:20;;;;;;;2.27;1.40;;;17.00;69.50;;;;;;10417497;28;20665;-83
2021/05/21 09:37:23;;;;;;;1.17;1.07;;;17.00;70.30;;;;;;10387318;28;20237;-82
2021/05/21 09:42:26;;;;;;;1.70;1.07;;;17.10;69.50;;;;;;10395577;28;20245;-82
2021/05/21 09:47:48;;;;;;;2.10;1.10;;;17.00;70.30;;;;;;10417760;28;20227;-82
2021/05/21 09:52:50;;;;;;;1.30;1.20;;;17.10;70.10;;;;;;10397756;28;20237;-88
2021/05/21 09:57:52;;;;;;;1.63;1.50;;;17.10;70.50;;;;;;10414783;23;20290;-78
2021/05/21 10:02:54;;;;;;;1.20;1.03;;;17.10;70.90;;;;;;10456034;28;20288;-78
2021/05/21 10:07:57;;;;;;;1.80;1.20;;;17.10;69.50;;;;;;10420801;28;20228;-78
2021/05/21 10:12:59;;;;;;;1.10;1.00;;;17.10;70.20;;;;;;10414770;28;20216;-78
2021/05/21 10:18:02;;;;;;;1.57;1.20;;;17.00;70.10;;;;;;10414691;28;20241;-78
2021/05/21 10:23:05;;;;;;;1.73;1.33;;;17.00;70.20;;;;;;10415529;28;20202;-78
2021/05/21 10:28:09;;;;;;;1.93;1.00;;;17.00;71.10;;;;;;10414501;28;20218;-78
2021/05/21 10:33:16;;;;;;;1.53;1.30;;;17.00;71.40;;;;;;10413732;28;20201;-78
2021/05/21 10:38:36;;;;;;;1.50;1.40;;;17.00;72.30;;;;;;10417940;28;20225;-78
2021/05/21 10:43:59;;;;;;;1.50;1.40;;;17.10;72.00;;;;;;10415376;28;20351;-78
2021/05/21 10:49:06;;;;;;;1.33;1.23;;;17.10;72.70;;;;;;10417255;28;20648;-78
2021/05/21 10:54:28;;;;;;;1.23;1.00;;;17.20;74.00;;;;;;10418547;28;20642;-78
2021/05/21 10:59:56;;;;;;;1.50;1.40;;;17.30;75.00;;;;;;10420813;28;20225;-78
2021/05/21 11:05:22;;;;;;;1.60;1.50;;;17.40;74.60;;;;;;10399421;28;20654;-78
2021/05/21 11:10:42;;;;;;;1.67;1.57;;;17.60;74.30;;;;;;10400712;28;20319;-78
2021/05/21 11:15:47;;;;;;;1.60;1.50;;;17.80;74.70;;;;;;10384029;28;20240;-79
2021/05/21 11:20:53;;;;;;;1.80;1.70;;;18.00;74.70;;;;;;10398733;28;20237;-78
2021/05/21 11:26:06;;;;;;;1.50;1.40;;;18.10;75.00;;;;;;10381140;28;20233;-79
2021/05/21 11:31:09;;;;;;;1.67;1.57;;;18.20;72.60;;;;;;10379368;28;20880;-78
2021/05/21 11:36:11;;;;;;;1.50;1.40;;;18.20;72.40;;;;;;10417503;28;20218;-78
2021/05/21 11:41:13;;;;;;;1.57;1.47;;;18.40;72.50;;;;;;10395229;28;20620;-79
2021/05/21 11:46:17;;;;;;;1.07;1.07;;;18.60;71.60;;;;;;10381222;28;20741;-78
2021/05/21 11:51:23;;;;;;;1.20;1.10;;;18.70;71.50;;;;;;10393507;28;20212;-78
2021/05/21 11:56:28;;;;;;;1.30;1.20;;;18.80;71.80;;;;;;10425679;28;20241;-78
2021/05/21 12:01:31;;;;;;;1.50;1.40;;;18.80;70.40;;;;;;10425748;28;20268;-79
2021/05/21 12:06:33;;;;;;;1.73;1.20;;;18.70;68.80;;;;;;10424618;28;20221;-78
2021/05/21 12:11:35;;;;;;;2.50;1.00;;;18.50;68.00;;;;;;10427027;28;20216;-77
2021/05/21 12:16:39;;;;;;;1.30;1.20;;;18.40;66.70;;;;;;10403975;28;20478;-79
2021/05/21 12:21:43;;;;;;;1.10;1.00;;;18.40;67.40;;;;;;10423345;28;20202;-79
2021/05/21 12:26:45;;;;;;;1.40;1.30;;;18.40;65.90;;;;;;10422876;28;20250;-78
2021/05/21 12:31:51;;;;;;;1.40;1.30;;;18.40;67.00;;;;;;10387007;28;20217;-78
2021/05/21 12:36:57;;;;;;;1.47;0.90;;;18.30;66.30;;;;;;10405231;28;20725;-79
2021/05/21 12:42:00;;;;;;;1.37;1.27;;;18.40;65.70;;;;;;10399082;28;20206;-79
2021/05/21 12:47:04;;;;;;;1.30;1.30;;;18.40;64.80;;;;;;10395243;28;20221;-79
2021/05/21 12:52:07;;;;;;;1.53;1.43;;;18.40;65.20;;;;;;10384376;28;20215;-79
2021/05/21 12:57:15;;;;;;;1.90;1.20;;;18.40;65.20;;;;;;10385714;28;20226;-78
2021/05/21 13:02:20;;;;;;;1.40;1.30;;;18.30;64.20;;;;;;10367089;28;20230;-78
2021/05/21 13:07:22;;;;;;;1.50;1.40;;;18.30;64.20;;;;;;10381602;28;20228;-78
2021/05/21 13:12:32;;;;;;;1.30;1.20;;;18.20;63.80;;;;;;10384915;28;20237;-78
2021/05/21 13:17:37;;;;;;;1.70;1.30;;;18.20;63.30;;;;;;10376920;28;20254;-78
2021/05/21 13:22:39;;;;;;;2.50;1.30;;;18.10;64.30;;;;;;10374336;28;20626;-78
2021/05/21 13:27:41;;;;;;;1.10;1.10;;;18.10;64.30;;;;;;10376381;28;20218;-78
2021/05/21 13:32:44;;;;;;;1.90;1.77;;;18.10;64.10;;;;;;10378243;28;20205;-78
2021/05/21 13:37:45;;;;;;;1.43;1.33;;;18.00;65.50;;;;;;10393223;28;20226;-79
2021/05/21 13:42:47;;;;;;;1.60;1.50;;;18.00;64.90;;;;;;10390356;28;20194;-78
2021/05/21 13:47:49;;;;;;;1.60;1.50;;;18.10;64.50;;;;;;10378212;28;20712;-78
2021/05/21 13:52:51;;;;;;;1.30;1.20;;;18.10;64.60;;;;;;10382338;28;20255;-78
2021/05/21 13:57:53;;;;;;;4.93;2.03;;;17.90;65.70;;;;;;10378204;28;20702;-78
2021/05/21 14:02:55;;;;;;;1.60;1.40;;;17.90;66.30;;;;;;10378416;28;20285;-78
2021/05/21 14:07:56;;;;;;;1.33;1.20;;;17.80;67.10;;;;;;10412383;28;20218;-79
2021/05/21 14:12:58;;;;;;;1.27;1.27;;;17.90;66.10;;;;;;10380977;28;20691;-78
2021/05/21 14:18:01;;;;;;;1.60;1.50;;;18.00;67.10;;;;;;10402179;28;20272;-78
2021/05/21 14:23:03;;;;;;;1.30;1.30;;;18.00;66.70;;;;;;10412035;28;20201;-78
2021/05/21 14:28:06;;;;;;;1.83;1.53;;;18.00;66.30;;;;;;10387020;28;20241;-79
2021/05/21 14:33:11;;;;;;;1.40;1.30;;;18.00;65.00;;;;;;10412246;28;20236;-78
2021/05/21 14:38:13;;;;;;;1.57;1.40;;;17.80;64.70;;;;;;10411277;28;20275;-78
2021/05/21 14:43:14;;;;;;;1.67;1.40;;;17.70;65.00;;;;;;10391101;28;20282;-78
2021/05/21 14:48:17;;;;;;;1.20;1.10;;;17.50;65.70;;;;;;10390577;28;20233;-78
2021/05/21 14:53:18;;;;;;;1.60;1.50;;;17.40;68.00;;;;;;10391407;28;20721;-78
2021/05/21 14:58:20;;;;;;;1.17;1.17;;;17.30;67.90;;;;;;10416937;28;20230;-78
2021/05/21 15:03:23;;;;;;;1.00;0.90;;;17.20;68.40;;;;;;10404660;28;20267;-78
2021/05/21 15:08:24;;;;;;;0.70;0.70;;;17.10;69.40;;;;;;10389893;28;20246;-78
2021/05/21 15:13:29;;;;;;;1.37;1.30;;;17.00;70.10;;;;;;10391675;28;20210;-78
2021/05/21 15:24:15;;;;;;;1.30;1.20;;;16.90;69.70;;;;;;10361070;28;20202;-78
2021/05/21 15:29:17;;;;;;;1.30;1.20;;;16.80;70.70;;;;;;10374907;28;20250;-78
2021/05/21 15:34:21;;;;;;;1.50;1.40;;;16.50;71.10;;;;;;10416019;28;20217;-78
2021/05/21 15:39:26;;;;;;;0.90;0.90;;;16.40;72.60;;;;;;10394349;28;20229;-78
2021/05/21 15:49:51;;;;;;;1.30;1.30;;;16.40;72.70;;;;;;10374127;28;20288;-78
2021/05/21 15:54:56;;;;;;;1.40;1.30;;;16.30;72.90;;;;;;10358543;28;20211;-78
2021/05/21 15:59:59;;;;;;;1.57;1.30;;;16.20;73.00;;;;;;10431179;22;20317;-82
2021/05/21 16:05:02;;;;;;;1.20;1.20;;;16.30;73.20;;;;;;10423170;28;20248;-82
2021/05/21 16:10:05;;;;;;;1.13;1.13;;;16.30;74.20;;;;;;10401483;28;20261;-82
2021/05/21 16:15:07;;;;;;;1.10;1.10;;;16.30;74.00;;;;;;10365802;28;20252;-82
2021/05/21 16:20:11;;;;;;;1.30;1.20;;;16.30;75.40;;;;;;10386877;28;20341;-81
2021/05/21 16:25:14;;;;;;;1.33;1.23;;;16.30;74.80;;;;;;10386944;28;20221;-82
2021/05/21 16:30:16;;;;;;;1.77;1.67;;;16.30;75.00;;;;;;10387194;28;20240;-82
2021/05/21 16:35:19;;;;;;;1.60;1.50;;;16.40;75.60;;;;;;10401112;28;20233;-82
2021/05/21 16:40:21;;;;;;;1.50;1.37;;;16.40;74.80;;;;;;10418798;28;20230;-81
2021/05/21 16:45:23;;;;;;;1.40;1.30;;;16.40;73.90;;;;;;10416467;28;20213;-81
2021/05/21 16:50:26;;;;;;;1.33;1.33;;;16.30;74.30;;;;;;10395561;28;20232;-82
2021/05/21 16:55:28;;;;;;;1.87;1.73;;;16.30;74.60;;;;;;10400327;28;20704;-81
2021/05/21 17:00:29;;;;;;;1.13;1.10;;;16.30;73.80;;;;;;10400257;28;20245;-81
2021/05/21 17:05:32;;;;;;;1.40;1.30;;;16.20;74.10;;;;;;10367350;28;20230;-81
2021/05/21 17:10:33;;;;;;;0.90;0.90;;;16.10;74.50;;;;;;10348532;28;20713;-81
2021/05/21 17:15:44;;;;;;;1.20;1.10;;;16.20;75.10;;;;;;10364889;28;20206;-81
2021/05/21 17:26:18;;;;;;;1.10;1.10;;;16.00;76.10;;;;;;10380267;28;20206;-82
2021/05/21 17:47:27;;;;;;;4.83;3.10;;;15.50;78.90;;;;;;10379911;28;20241;-81
2021/05/21 18:08:47;;;;;;;2.33;2.20;;;15.40;80.40;;;;;;10413195;28;20305;-81
2021/05/21 18:14:12;;;;;;;1.47;1.37;;;15.40;80.40;;;;;;10397660;28;20210;-81
2021/05/21 18:46:54;;;;;;;1.70;1.60;;;15.10;82.40;;;;;;10369982;28;20222;-81
2021/05/21 18:52:24;;;;;;;1.60;1.50;;;15.10;82.10;;;;;;10411946;28;20202;-81
2021/05/21 19:02:47;;;;;;;1.83;1.73;;;15.10;81.50;;;;;;10411595;28;20217;-82
2021/05/21 19:07:51;;;;;;;2.03;1.90;;;15.10;81.40;;;;;;10396966;28;20220;-81
2021/05/21 19:12:59;;;;;;;1.73;1.63;;;15.10;82.00;;;;;;10390221;28;20670;-81
2021/05/21 19:18:07;;;;;;;1.40;1.40;;;15.10;82.50;;;;;;10390141;28;20230;-81
2021/05/21 19:23:24;;;;;;;2.53;1.63;;;15.10;81.40;;;;;;10415129;28;20202;-81
2021/05/21 19:28:34;;;;;;;1.30;1.20;;;15.10;81.40;;;;;;10415054;28;20229;-81
2021/05/21 19:33:49;;;;;;;1.57;1.47;;;15.10;81.40;;;;;;10380788;28;20218;-80
2021/05/21 19:39:06;;;;;;;1.63;1.53;;;15.00;82.40;;;;;;10413293;28;20309;-81
2021/05/21 19:44:20;;;;;;;1.40;1.30;;;15.00;83.10;;;;;;10415709;28;20201;-80
2021/05/21 20:16:22;;;;;;;3.40;2.70;;;15.10;84.30;;;;;;10406733;28;20226;-81
2021/05/21 20:21:24;;;;;;;2.47;2.00;;;15.00;83.90;;;;;;10388172;28;20698;-81
2021/05/21 20:26:30;;;;;;;1.93;1.80;;;15.00;84.10;;;;;;10395006;28;20205;-81
2021/05/21 20:32:01;;;;;;;2.13;2.03;;;15.00;83.30;;;;;;10404447;28;20201;-81
2021/05/21 21:03:55;;;;;;;2.67;2.47;;;14.70;80.70;;;;;;10411398;28;20233;-81
2021/05/21 21:08:59;;;;;;;1.67;1.57;;;14.70;80.20;;;;;;10369879;28;20217;-80
2021/05/21 21:14:19;;;;;;;4.40;1.43;;;14.60;78.20;;;;;;10416787;28;20252;-80
2021/05/21 21:19:34;;;;;;;1.23;1.23;;;14.50;77.90;;;;;;10381699;28;20237;-81
2021/05/21 21:25:02;;;;;;;1.30;1.13;;;14.40;77.90;;;;;;10402437;28;20677;-81
2021/05/21 21:30:16;;;;;;;1.30;1.30;;;14.40;78.70;;;;;;10416311;28;20221;-81
2021/05/21 21:51:40;;;;;;;1.40;1.30;;;14.20;77.50;;;;;;10416426;28;20255;-80
2021/05/21 22:02:08;;;;;;;1.43;1.10;;;14.00;78.40;;;;;;10370346;28;20213;-82
2021/05/21 22:07:28;;;;;;;1.63;1.37;;;14.00;78.10;;;;;;10397124;28;20249;-80
2021/05/21 22:18:05;;;;;;;1.00;1.00;;;14.00;78.40;;;;;;10417656;28;20235;-80
2021/05/21 22:23:18;;;;;;;1.30;1.30;;;13.90;78.30;;;;;;10419468;28;20280;-80
2021/05/21 22:28:19;;;;;;;1.43;1.13;;;14.00;78.50;;;;;;10402339;28;20322;-81
2021/05/21 22:33:21;;;;;;;1.20;1.10;;;14.00;78.10;;;;;;10401970;28;20289;-80
2021/05/21 22:38:23;;;;;;;1.93;1.43;;;13.90;78.60;;;;;;10415079;28;20240;-80
2021/05/21 22:43:25;;;;;;;1.60;1.50;;;13.90;79.40;;;;;;10398935;28;20214;-81
2021/05/21 22:48:27;;;;;;;2.47;2.27;;;13.90;79.00;;;;;;10380865;28;20313;-80
2021/05/21 22:53:29;;;;;;;1.43;1.33;;;13.80;80.40;;;;;;10398665;28;20237;-80
2021/05/21 22:58:33;;;;;;;2.00;1.30;;;13.80;79.20;;;;;;10392894;28;20306;-80
2021/05/21 23:03:35;;;;;;;1.43;1.30;;;13.80;79.40;;;;;;10399536;28;20260;-80
2021/05/21 23:08:37;;;;;;;1.27;1.17;;;13.70;79.50;;;;;;10416684;28;20222;-81
2021/05/21 23:13:39;;;;;;;1.30;1.20;;;13.70;79.30;;;;;;10401553;28;20209;-81
2021/05/21 23:18:41;;;;;;;1.70;1.17;;;13.70;79.40;;;;;;10419885;28;20255;-80
2021/05/21 23:23:43;;;;;;;1.67;1.57;;;13.70;79.40;;;;;;10418166;28;20670;-81
2021/05/21 23:28:45;;;;;;;0.90;0.90;;;13.70;79.60;;;;;;10379200;28;20223;-80
2021/05/21 23:33:46;;;;;;;2.47;1.10;;;13.70;79.50;;;;;;10338484;28;20206;-80
2021/05/21 23:38:49;;;;;;;1.03;1.03;;;13.60;79.70;;;;;;10341222;28;20368;-80
2021/05/21 23:43:51;;;;;;;2.33;1.50;;;13.60;79.80;;;;;;10347975;28;20210;-80
2021/05/21 23:48:53;;;;;;;1.43;1.30;;;13.60;79.90;;;;;;10351930;28;20220;-81
2021/05/21 23:53:55;;;;;;;1.47;1.10;;;13.50;80.30;;;;;;10398287;28;20198;-80
2021/05/21 23:58:57;;;;;;;1.70;1.23;;;13.50;80.40;;;;;;10425445;28;20732;-81
